createdAt,value
2022-09-11T00:00:39.612Z,15.48
2022-09-11T00:03:23.950Z,15.41
2022-09-11T00:05:55.110Z,15.40
2022-09-11T00:08:22.942Z,15.49
2022-09-11T00:10:51.068Z,15.47
2022-09-11T00:13:27.611Z,15.38
2022-09-11T00:16:58.503Z,15.38
2022-09-11T00:19:28.982Z,15.33
2022-09-11T00:21:58.672Z,15.37
2022-09-11T00:24:26.189Z,15.34
2022-09-11T00:26:54.550Z,15.39
2022-09-11T00:29:22.376Z,15.57
2022-09-11T00:31:50.486Z,15.48
2022-09-11T00:34:18.122Z,15.50
2022-09-11T00:36:48.344Z,15.40
2022-09-11T00:39:16.023Z,15.43
2022-09-11T00:41:46.143Z,15.47
2022-09-11T00:44:50.818Z,15.53
2022-09-11T00:47:19.257Z,15.54
2022-09-11T00:49:49.970Z,15.54
2022-09-11T00:52:21.317Z,15.60
2022-09-11T00:54:53.210Z,15.61
2022-09-11T00:57:24.059Z,15.58
2022-09-11T00:59:52.939Z,15.72
2022-09-11T01:02:27.176Z,15.60
2022-09-11T01:04:55.733Z,15.60
2022-09-11T01:07:25.859Z,15.62
2022-09-11T01:09:55.183Z,15.65
2022-09-11T01:12:24.907Z,15.58
2022-09-11T01:14:55.990Z,15.63
2022-09-11T01:17:28.541Z,15.64
2022-09-11T01:20:14.424Z,15.60
2022-09-11T01:23:17.892Z,15.65
2022-09-11T01:26:00.630Z,15.57
2022-09-11T01:28:33.659Z,15.61
2022-09-11T01:31:07.454Z,15.54
2022-09-11T01:33:39.769Z,15.65
2022-09-11T01:36:10.099Z,15.61
2022-09-11T01:38:40.937Z,15.49
2022-09-11T01:41:10.656Z,15.55
2022-09-11T01:43:42.950Z,15.56
2022-09-11T01:46:10.669Z,15.71
2022-09-11T01:48:41.155Z,15.82
2022-09-11T01:51:10.242Z,15.71
2022-09-11T01:53:40.383Z,15.69
2022-09-11T01:56:11.218Z,15.61
2022-09-11T01:58:40.497Z,15.52
2022-09-11T02:01:10.668Z,15.59
2022-09-11T02:03:41.354Z,15.57
2022-09-11T02:06:11.689Z,15.46
2022-09-11T02:08:42.257Z,15.38
2022-09-11T02:11:12.267Z,15.43
2022-09-11T02:13:45.731Z,15.53
2022-09-11T02:16:19.666Z,15.39
2022-09-11T02:18:58.663Z,15.26
2022-09-11T02:21:27.695Z,15.13
2022-09-11T02:23:55.684Z,15.02
2022-09-11T02:26:25.062Z,15.07
2022-09-11T02:28:54.872Z,15.01
2022-09-11T02:31:22.805Z,15.08
2022-09-11T02:33:51.222Z,15.05
2022-09-11T02:36:35.533Z,15.13
2022-09-11T02:39:17.013Z,15.17
2022-09-11T02:41:55.248Z,15.31
2022-09-11T02:44:29.635Z,15.29
2022-09-11T02:47:07.470Z,15.22
2022-09-11T02:49:42.983Z,15.19
2022-09-11T02:52:18.359Z,15.27
2022-09-11T02:54:53.485Z,15.22
2022-09-11T02:57:26.419Z,15.30
2022-09-11T03:00:00.253Z,15.21
2022-09-11T03:02:28.681Z,15.18
2022-09-11T03:04:56.665Z,15.24
2022-09-11T03:07:25.167Z,15.40
2022-09-11T03:09:52.884Z,15.39
2022-09-11T03:12:20.331Z,15.33
2022-09-11T03:14:48.542Z,15.39
2022-09-11T03:17:17.557Z,15.39
2022-09-11T03:19:44.998Z,15.45
2022-09-11T03:22:12.584Z,15.41
2022-09-11T03:24:40.106Z,15.53
2022-09-11T03:27:07.742Z,15.56
2022-09-11T03:29:35.154Z,15.57
2022-09-11T03:32:02.912Z,15.51
2022-09-11T03:34:31.734Z,15.61
2022-09-11T03:37:00.175Z,15.58
2022-09-11T03:39:27.607Z,15.57
2022-09-11T03:41:55.181Z,15.57
2022-09-11T03:44:23.129Z,15.55
2022-09-11T03:46:50.626Z,15.58
2022-09-11T03:49:18.089Z,15.59
2022-09-11T03:51:47.757Z,15.56
2022-09-11T03:54:16.002Z,15.67
2022-09-11T03:56:43.847Z,15.53
2022-09-11T03:59:11.296Z,15.54
2022-09-11T04:01:38.803Z,15.64
2022-09-11T04:04:06.321Z,15.73
2022-09-11T04:06:33.878Z,15.63
2022-09-11T04:09:02.692Z,15.68
2022-09-11T04:11:33.309Z,15.59
2022-09-11T04:14:04.326Z,15.65
2022-09-11T04:16:32.827Z,15.89
2022-09-11T04:19:00.918Z,15.97
2022-09-11T04:21:29.035Z,15.91
2022-09-11T04:24:00.068Z,15.95
2022-09-11T04:26:30.724Z,15.82
2022-09-11T04:28:59.397Z,15.68
2022-09-11T04:31:27.620Z,15.57
2022-09-11T04:33:57.743Z,15.47
2022-09-11T04:36:26.946Z,15.33
2022-09-11T04:38:57.719Z,15.34
2022-09-11T04:41:26.138Z,15.26
2022-09-11T04:44:00.025Z,15.12
2022-09-11T04:46:30.022Z,14.93
2022-09-11T04:49:00.096Z,14.85
2022-09-11T04:51:30.045Z,14.91
2022-09-11T04:53:58.847Z,14.89
2022-09-11T04:56:28.029Z,14.72
2022-09-11T04:58:59.301Z,14.72
2022-09-11T05:01:28.809Z,14.59
2022-09-11T05:03:56.508Z,14.60
2022-09-11T05:06:24.057Z,14.71
2022-09-11T05:08:51.772Z,14.81
2022-09-11T05:11:20.900Z,14.79
2022-09-11T05:13:48.822Z,14.80
2022-09-11T05:16:18.519Z,14.89
2022-09-11T05:18:51.920Z,14.85
2022-09-11T05:21:22.385Z,14.84
2022-09-11T05:23:51.195Z,14.80
2022-09-11T05:26:19.704Z,14.76
2022-09-11T05:28:47.222Z,14.75
2022-09-11T05:31:17.747Z,14.84
2022-09-11T05:33:45.518Z,14.79
2022-09-11T05:36:14.592Z,14.79
2022-09-11T05:38:42.831Z,14.76
2022-09-11T05:41:12.505Z,14.84
2022-09-11T05:43:41.035Z,14.89
2022-09-11T05:46:11.793Z,14.92
2022-09-11T05:48:41.297Z,14.92
2022-09-11T05:51:12.797Z,15.07
2022-09-11T05:53:40.786Z,15.05
2022-09-11T05:56:09.657Z,15.04
2022-09-11T05:58:37.488Z,15.01
2022-09-11T06:01:08.214Z,15.01
2022-09-11T06:03:36.042Z,15.05
2022-09-11T06:06:06.500Z,15.07
2022-09-11T06:08:34.640Z,15.09
2022-09-11T06:11:03.315Z,15.02
2022-09-11T06:13:31.672Z,15.01
2022-09-11T06:15:59.099Z,15.06
2022-09-11T06:18:26.584Z,15.10
2022-09-11T06:20:57.707Z,15.19
2022-09-11T06:23:26.578Z,15.14
2022-09-11T06:25:54.750Z,15.24
2022-09-11T06:28:23.410Z,15.38
2022-09-11T06:30:51.257Z,15.46
2022-09-11T06:33:20.396Z,15.54
2022-09-11T06:35:58.580Z,15.63
2022-09-11T06:38:27.839Z,15.76
2022-09-11T06:40:55.669Z,15.86
2022-09-11T06:43:23.180Z,15.98
2022-09-11T06:45:50.643Z,16.05
2022-09-11T06:48:18.917Z,16.12
2022-09-11T06:50:46.618Z,16.16
2022-09-11T06:53:15.111Z,16.21
2022-09-11T06:55:43.875Z,16.21
2022-09-11T06:58:11.795Z,16.24
2022-09-11T07:00:39.359Z,16.32
2022-09-11T07:03:07.204Z,16.37
2022-09-11T07:05:34.639Z,16.48
2022-09-11T07:08:02.476Z,16.55
2022-09-11T07:10:29.951Z,16.68
2022-09-11T07:12:58.738Z,16.81
2022-09-11T07:15:26.182Z,16.94
2022-09-11T07:17:55.251Z,17.07
2022-09-11T07:20:23.189Z,17.22
2022-09-11T07:22:50.732Z,17.20
2022-09-11T07:25:18.546Z,17.28
2022-09-11T07:27:46.285Z,17.26
2022-09-11T07:30:15.315Z,17.31
2022-09-11T07:32:42.759Z,17.34
2022-09-11T07:35:10.211Z,17.39
2022-09-11T07:37:37.636Z,17.44
2022-09-11T07:40:05.942Z,17.42
2022-09-11T07:42:33.906Z,17.47
2022-09-11T07:45:01.332Z,17.65
2022-09-11T07:47:30.852Z,17.70
2022-09-11T07:49:58.303Z,17.63
2022-09-11T07:52:26.180Z,17.67
2022-09-11T07:54:55.744Z,17.78
2022-09-11T07:57:24.209Z,17.71
2022-09-11T07:59:51.657Z,17.76
2022-09-11T08:02:20.067Z,17.87
2022-09-11T08:04:49.122Z,17.99
2022-09-11T08:07:17.009Z,17.95
2022-09-11T08:09:44.452Z,17.97
2022-09-11T08:12:12.130Z,18.01
2022-09-11T08:14:39.605Z,18.07
2022-09-11T08:17:07.055Z,18.10
2022-09-11T08:19:34.529Z,18.17
2022-09-11T08:22:03.571Z,18.32
2022-09-11T08:24:31.069Z,18.30
2022-09-11T08:26:58.634Z,18.38
2022-09-11T08:29:26.186Z,18.40
2022-09-11T08:31:53.705Z,18.49
2022-09-11T08:34:22.182Z,18.58
2022-09-11T08:36:51.898Z,18.65
2022-09-11T08:39:20.726Z,18.77
2022-09-11T08:41:49.874Z,18.74
2022-09-11T08:44:21.871Z,18.63
2022-09-11T08:46:51.754Z,18.77
2022-09-11T08:49:24.524Z,18.83
2022-09-11T08:51:52.986Z,18.73
2022-09-11T08:54:27.516Z,18.89
2022-09-11T08:57:01.533Z,19.00
2022-09-11T08:59:34.921Z,18.88
2022-09-11T09:02:13.457Z,18.98
2022-09-11T09:04:56.790Z,19.25
2022-09-11T09:07:32.030Z,19.54
2022-09-11T09:10:04.801Z,19.73
2022-09-11T09:12:40.400Z,19.61
2022-09-11T09:15:17.958Z,19.69
2022-09-11T09:17:49.101Z,19.78
2022-09-11T09:20:22.485Z,19.79
2022-09-11T09:22:53.651Z,19.98
2022-09-11T09:25:23.733Z,20.03
2022-09-11T09:27:55.347Z,19.96
2022-09-11T09:30:27.215Z,19.82
2022-09-11T09:32:58.532Z,19.89
2022-09-11T09:35:39.577Z,19.85
2022-09-11T09:38:12.227Z,19.69
2022-09-11T09:40:47.006Z,19.73
2022-09-11T09:43:24.280Z,19.93
2022-09-11T09:46:02.564Z,19.85
2022-09-11T09:48:34.430Z,19.74
2022-09-11T09:51:04.005Z,19.98
2022-09-11T09:53:35.961Z,19.99
2022-09-11T09:56:05.902Z,20.06
2022-09-11T09:58:37.893Z,19.91
2022-09-11T10:01:08.171Z,19.93
2022-09-11T10:03:35.726Z,20.22
2022-09-11T10:06:03.201Z,20.41
2022-09-11T10:08:35.450Z,20.53
2022-09-11T10:11:05.699Z,20.47
2022-09-11T10:13:34.313Z,20.57
2022-09-11T10:16:03.681Z,20.69
2022-09-11T10:18:42.416Z,20.59
2022-09-11T10:21:22.442Z,20.73
2022-09-11T10:23:52.520Z,20.73
2022-09-11T10:26:25.995Z,20.57
2022-09-11T10:28:54.342Z,20.48
2022-09-11T10:31:22.687Z,20.42
2022-09-11T10:33:53.328Z,20.45
2022-09-11T10:36:24.333Z,20.46
2022-09-11T10:38:52.868Z,20.34
2022-09-11T10:41:24.881Z,20.33
2022-09-11T10:43:56.453Z,20.46
2022-09-11T10:46:28.217Z,20.41
2022-09-11T10:48:57.813Z,20.31
2022-09-11T10:51:27.261Z,20.38
2022-09-11T10:54:05.278Z,20.31
2022-09-11T10:56:40.000Z,20.24
2022-09-11T10:59:13.246Z,20.19
2022-09-11T11:01:40.886Z,19.94
2022-09-11T11:04:12.422Z,19.87
2022-09-11T11:06:53.956Z,19.81
2022-09-11T11:09:31.321Z,19.82
2022-09-11T11:12:13.768Z,19.65
2022-09-11T11:14:54.615Z,19.91
2022-09-11T11:17:25.355Z,19.85
2022-09-11T11:20:02.056Z,19.77
2022-09-11T11:22:42.208Z,19.89
2022-09-11T11:25:15.770Z,19.82
2022-09-11T11:28:00.334Z,19.90
2022-09-11T11:30:31.750Z,19.85
2022-09-11T11:33:14.582Z,19.83
2022-09-11T11:35:46.961Z,19.91
2022-09-11T11:38:18.333Z,19.71
2022-09-11T11:40:49.545Z,19.75
2022-09-11T11:43:21.751Z,19.70
2022-09-11T11:45:53.329Z,19.79
2022-09-11T11:48:26.137Z,19.78
2022-09-11T11:50:55.196Z,19.78
2022-09-11T11:53:25.584Z,19.88
2022-09-11T11:56:01.219Z,20.01
2022-09-11T11:58:40.343Z,20.35
2022-09-11T12:01:13.132Z,20.43
2022-09-11T12:03:44.906Z,20.64
2022-09-11T12:06:12.506Z,20.85
2022-09-11T12:08:44.592Z,20.89
2022-09-11T12:11:13.939Z,20.81
2022-09-11T12:13:44.890Z,20.82
2022-09-11T12:16:17.229Z,20.92
2022-09-11T12:19:04.146Z,21.18
2022-09-11T12:21:37.453Z,21.15
2022-09-11T12:24:17.771Z,21.11
2022-09-11T12:26:45.584Z,21.09
2022-09-11T12:29:49.917Z,21.22
2022-09-11T12:32:43.267Z,21.27
2022-09-11T12:35:19.313Z,21.31
2022-09-11T12:37:54.031Z,21.33
2022-09-11T12:40:26.356Z,21.20
2022-09-11T12:42:59.016Z,21.34
2022-09-11T12:45:36.210Z,21.37
2022-09-11T12:48:07.248Z,21.38
2022-09-11T12:50:35.530Z,21.40
2022-09-11T12:53:06.456Z,21.50
2022-09-11T12:55:39.639Z,21.43
2022-09-11T12:58:09.672Z,21.48
2022-09-11T13:00:39.878Z,21.72
2022-09-11T13:03:17.290Z,21.82
2022-09-11T13:05:45.657Z,21.80
2022-09-11T13:08:17.977Z,21.75
2022-09-11T13:10:46.701Z,21.74
2022-09-11T13:13:47.917Z,21.70
2022-09-11T13:16:19.501Z,21.80
2022-09-11T13:18:48.452Z,21.72
2022-09-11T13:21:20.238Z,21.77
2022-09-11T13:23:49.586Z,21.82
2022-09-11T13:26:30.314Z,21.90
2022-09-11T13:28:59.886Z,21.87
2022-09-11T13:31:33.723Z,21.85
2022-09-11T13:34:04.383Z,21.91
2022-09-11T13:36:33.220Z,21.90
2022-09-11T13:39:04.582Z,21.97
2022-09-11T13:41:34.176Z,21.98
2022-09-11T13:44:03.718Z,21.98
2022-09-11T13:46:32.447Z,22.12
2022-09-11T13:49:28.085Z,22.07
2022-09-11T13:51:56.025Z,22.03
2022-09-11T13:54:28.774Z,21.90
2022-09-11T13:57:23.991Z,22.01
2022-09-11T13:59:54.168Z,22.16
2022-09-11T14:02:46.882Z,22.26
2022-09-11T14:05:20.711Z,22.56
2022-09-11T14:07:56.509Z,22.56
2022-09-11T14:10:29.675Z,22.46
2022-09-11T14:13:03.729Z,22.33
2022-09-11T14:15:40.423Z,22.26
2022-09-11T14:18:14.664Z,22.36
2022-09-11T14:20:45.077Z,22.68
2022-09-11T14:23:17.240Z,22.86
2022-09-11T14:26:06.584Z,22.94
2022-09-11T14:28:37.252Z,22.94
2022-09-11T14:31:08.466Z,23.03
2022-09-11T14:33:36.113Z,23.17
2022-09-11T14:36:07.988Z,23.40
2022-09-11T14:38:50.460Z,23.13
2022-09-11T14:41:24.881Z,23.21
2022-09-11T14:43:53.034Z,23.23
2022-09-11T14:46:20.560Z,23.19
2022-09-11T14:48:48.143Z,23.38
2022-09-11T14:51:17.221Z,23.47
2022-09-11T14:53:45.196Z,23.48
2022-09-11T14:56:12.867Z,23.43
2022-09-11T14:58:42.252Z,23.31
2022-09-11T15:01:12.345Z,23.31
2022-09-11T15:03:40.013Z,23.26
2022-09-11T15:06:12.000Z,23.07
2022-09-11T15:08:41.907Z,23.13
2022-09-11T15:11:09.441Z,22.98
2022-09-11T15:13:37.961Z,23.06
2022-09-11T15:16:12.053Z,22.95
2022-09-11T15:18:40.768Z,22.97
2022-09-11T15:21:08.419Z,23.03
2022-09-11T15:23:36.153Z,22.89
2022-09-11T15:26:05.581Z,22.69
2022-09-11T15:28:33.335Z,22.64
2022-09-11T15:31:01.865Z,22.69
2022-09-11T15:33:30.097Z,22.68
2022-09-11T15:36:02.123Z,22.76
2022-09-11T15:38:29.813Z,22.83
2022-09-11T15:40:58.235Z,22.75
2022-09-11T15:43:35.804Z,22.73
2022-09-11T15:46:09.273Z,22.63
2022-09-11T15:48:36.879Z,22.60
2022-09-11T15:51:05.307Z,22.59
2022-09-11T15:53:33.633Z,22.60
2022-09-11T15:56:06.049Z,22.45
2022-09-11T15:58:35.361Z,22.06
2022-09-11T16:01:03.491Z,21.96
2022-09-11T16:03:31.465Z,22.02
2022-09-11T16:06:00.933Z,22.10
2022-09-11T16:08:29.198Z,21.90
2022-09-11T16:10:56.737Z,21.88
2022-09-11T16:13:25.251Z,21.76
2022-09-11T16:16:02.488Z,21.56
2022-09-11T16:18:30.722Z,21.60
2022-09-11T16:21:01.380Z,21.95
2022-09-11T16:23:34.935Z,21.70
2022-09-11T16:26:04.134Z,21.57
2022-09-11T16:28:33.842Z,21.59
2022-09-11T16:31:03.342Z,21.38
2022-09-11T16:33:31.608Z,21.48
2022-09-11T16:35:59.910Z,21.57
2022-09-11T16:38:27.757Z,21.59
2022-09-11T16:41:02.687Z,21.85
2022-09-11T16:43:31.481Z,21.85
2022-09-11T16:45:59.075Z,21.69
2022-09-11T16:48:28.137Z,21.70
2022-09-11T16:50:57.753Z,21.69
2022-09-11T16:53:27.462Z,21.68
2022-09-11T16:55:57.047Z,21.38
2022-09-11T16:58:24.804Z,21.27
2022-09-11T17:00:54.020Z,21.28
2022-09-11T17:03:22.105Z,21.23
2022-09-11T17:05:52.781Z,21.22
2022-09-11T17:08:21.347Z,21.13
2022-09-11T17:10:50.754Z,21.10
2022-09-11T17:13:19.394Z,21.06
2022-09-11T17:15:47.161Z,21.06
2022-09-11T17:18:14.771Z,20.96
2022-09-11T17:20:42.644Z,20.88
2022-09-11T17:23:12.138Z,20.78
2022-09-11T17:25:41.753Z,20.68
2022-09-11T17:28:09.357Z,20.58
2022-09-11T17:30:39.618Z,20.52
2022-09-11T17:33:07.420Z,20.42
2022-09-11T17:35:35.002Z,20.32
2022-09-11T17:38:03.677Z,20.22
2022-09-11T17:40:32.786Z,20.09
2022-09-11T17:43:01.044Z,19.97
2022-09-11T17:45:30.973Z,19.87
2022-09-11T17:47:58.745Z,19.74
2022-09-11T17:50:28.172Z,19.61
2022-09-11T17:52:56.099Z,19.51
2022-09-11T17:55:23.825Z,19.41
2022-09-11T17:57:55.828Z,19.32
2022-09-11T18:00:23.793Z,19.24
2022-09-11T18:02:56.713Z,19.17
2022-09-11T18:05:24.355Z,19.08
2022-09-11T18:07:52.095Z,19.00
2022-09-11T18:10:20.722Z,18.92
2022-09-11T18:12:50.950Z,18.83
2022-09-11T18:15:19.947Z,18.74
2022-09-11T18:17:47.957Z,18.69
2022-09-11T18:20:17.736Z,18.60
2022-09-11T18:22:45.318Z,18.47
2022-09-11T18:25:13.197Z,18.40
2022-09-11T18:27:41.121Z,18.35
2022-09-11T18:30:09.930Z,18.31
2022-09-11T18:32:39.963Z,18.25
2022-09-11T18:35:08.956Z,18.21
2022-09-11T18:37:36.693Z,18.13
2022-09-11T18:40:05.117Z,18.05
2022-09-11T18:42:32.703Z,18.00
2022-09-11T18:45:00.508Z,17.89
2022-09-11T18:47:30.571Z,17.72
2022-09-11T18:50:01.029Z,17.63
2022-09-11T18:52:30.717Z,17.63
2022-09-11T18:55:00.099Z,17.62
2022-09-11T18:57:28.600Z,17.56
2022-09-11T18:59:56.333Z,17.72
2022-09-11T19:02:23.945Z,17.49
2022-09-11T19:04:52.720Z,17.40
2022-09-11T19:07:32.323Z,17.36
2022-09-11T19:10:00.342Z,17.35
2022-09-11T19:12:28.261Z,17.34
2022-09-11T19:14:55.899Z,17.38
2022-09-11T19:17:23.710Z,17.42
2022-09-11T19:19:51.763Z,17.34
2022-09-11T19:22:22.718Z,17.27
2022-09-11T19:24:50.298Z,17.10
2022-09-11T19:27:18.026Z,17.05
2022-09-11T19:29:46.260Z,17.05
2022-09-11T19:32:14.394Z,16.94
2022-09-11T19:34:46.523Z,16.92
2022-09-11T19:37:15.181Z,16.95
2022-09-11T19:39:44.702Z,16.95
2022-09-11T19:42:12.456Z,16.91
2022-09-11T19:44:40.778Z,16.89
2022-09-11T19:47:09.000Z,16.87
2022-09-11T19:49:37.375Z,16.77
2022-09-11T19:52:05.907Z,16.67
2022-09-11T19:54:34.627Z,16.75
2022-09-11T19:57:04.676Z,16.71
2022-09-11T19:59:32.739Z,16.58
2022-09-11T20:02:00.592Z,16.38
2022-09-11T20:04:28.323Z,16.18
2022-09-11T20:06:56.034Z,16.09
2022-09-11T20:09:32.346Z,16.06
2022-09-11T20:12:01.380Z,16.05
2022-09-11T20:14:31.083Z,16.16
2022-09-11T20:17:00.604Z,16.24
2022-09-11T20:19:28.513Z,16.23
2022-09-11T20:21:56.048Z,16.19
2022-09-11T20:24:23.894Z,16.25
2022-09-11T20:26:53.534Z,16.29
2022-09-11T20:29:21.154Z,16.19
2022-09-11T20:31:51.096Z,16.22
2022-09-11T20:34:20.184Z,16.30
2022-09-11T20:36:48.439Z,16.35
2022-09-11T20:39:21.570Z,16.38
2022-09-11T20:41:49.196Z,16.40
2022-09-11T20:44:17.064Z,16.48
2022-09-11T20:46:47.347Z,16.77
2022-09-11T20:49:16.437Z,16.67
2022-09-11T20:51:44.202Z,16.61
2022-09-11T20:54:11.808Z,16.53
2022-09-11T20:56:39.592Z,16.42
2022-09-11T20:59:07.253Z,16.36
2022-09-11T21:01:35.627Z,16.32
2022-09-11T21:04:04.632Z,16.06
2022-09-11T21:06:35.542Z,15.86
2022-09-11T21:09:07.405Z,15.74
2022-09-11T21:11:36.087Z,15.80
2022-09-11T21:14:07.503Z,15.89
2022-09-11T21:16:37.101Z,15.93
2022-09-11T21:19:12.175Z,15.87
2022-09-11T21:21:41.084Z,15.94
2022-09-11T21:24:11.572Z,15.94
2022-09-11T21:26:42.801Z,15.87
2022-09-11T21:29:12.729Z,15.65
2022-09-11T21:31:40.416Z,15.70
2022-09-11T21:34:08.187Z,15.72
2022-09-11T21:36:36.946Z,15.70
2022-09-11T21:39:06.518Z,15.58
2022-09-11T21:41:34.115Z,15.60
2022-09-11T21:44:01.903Z,15.62
2022-09-11T21:46:29.493Z,15.56
2022-09-11T21:48:57.061Z,15.41
2022-09-11T21:51:24.600Z,15.32
2022-09-11T21:53:58.078Z,15.34
2022-09-11T21:56:29.408Z,15.29
2022-09-11T21:58:57.206Z,15.31
2022-09-11T22:01:27.591Z,15.35
2022-09-11T22:03:56.804Z,15.23
2022-09-11T22:06:26.517Z,15.15
2022-09-11T22:08:56.256Z,14.95
2022-09-11T22:11:25.802Z,14.88
2022-09-11T22:13:55.113Z,14.87
2022-09-11T22:16:23.293Z,14.82
2022-09-11T22:18:54.645Z,14.77
2022-09-11T22:21:24.821Z,14.88
2022-09-11T22:23:52.491Z,14.77
2022-09-11T22:26:21.155Z,14.66
2022-09-11T22:28:48.968Z,14.57
2022-09-11T22:31:22.795Z,14.45
2022-09-11T22:33:50.796Z,14.48
2022-09-11T22:36:20.934Z,14.54
2022-09-11T22:38:50.362Z,14.55
2022-09-11T22:41:18.404Z,14.48
2022-09-11T22:43:47.440Z,14.43
2022-09-11T22:46:15.308Z,14.39
2022-09-11T22:48:44.691Z,14.36
2022-09-11T22:51:12.533Z,14.35
2022-09-11T22:53:40.509Z,14.52
2022-09-11T22:56:09.373Z,14.56
2022-09-11T22:58:38.330Z,14.52
2022-09-11T23:01:07.920Z,14.40
2022-09-11T23:03:35.630Z,14.36
2022-09-11T23:06:27.953Z,14.37
2022-09-11T23:08:56.054Z,14.44
2022-09-11T23:11:23.782Z,14.45
2022-09-11T23:13:52.319Z,14.42
2022-09-11T23:16:21.280Z,14.47
2022-09-11T23:18:49.497Z,14.47
2022-09-11T23:21:18.419Z,14.36
2022-09-11T23:23:54.310Z,14.25
2022-09-11T23:26:22.476Z,14.18
2022-09-11T23:28:50.017Z,14.21
2022-09-11T23:31:20.267Z,14.25
2022-09-11T23:33:48.328Z,14.68
2022-09-11T23:36:18.133Z,14.89
2022-09-11T23:38:46.482Z,15.00
2022-09-11T23:41:14.711Z,15.02
2022-09-11T23:43:42.366Z,14.80
2022-09-11T23:46:10.203Z,14.46
2022-09-11T23:48:37.883Z,14.28
2022-09-11T23:51:07.449Z,14.28
2022-09-11T23:53:36.294Z,14.24
2022-09-11T23:56:04.266Z,14.15
2022-09-11T23:58:36.593Z,14.08
